createdAt,value
2022-10-06T00:03:18.347Z,13.11
2022-10-06T00:08:41.063Z,13.05
2022-10-06T00:14:01.824Z,13.04
2022-10-06T00:19:22.478Z,13.07
2022-10-06T00:24:43.041Z,13.06
2022-10-06T00:30:05.409Z,13.06
2022-10-06T00:35:28.190Z,13.03
2022-10-06T00:40:50.939Z,12.92
2022-10-06T00:46:34.223Z,12.93
2022-10-06T00:52:00.106Z,12.98
2022-10-06T00:57:21.079Z,12.96
2022-10-06T01:02:46.685Z,12.98
2022-10-06T01:08:08.895Z,13.03
2022-10-06T01:13:30.635Z,12.93
2022-10-06T01:18:55.568Z,12.89
2022-10-06T01:24:18.591Z,12.85
2022-10-06T01:29:40.631Z,12.87
2022-10-06T01:35:01.419Z,12.87
2022-10-06T01:40:23.243Z,12.81
2022-10-06T01:45:43.845Z,12.76
2022-10-06T01:51:04.557Z,12.75
2022-10-06T01:56:25.152Z,12.76
2022-10-06T02:01:45.914Z,12.67
2022-10-06T02:07:07.572Z,12.68
2022-10-06T02:12:35.740Z,12.68
2022-10-06T02:17:56.421Z,12.62
2022-10-06T02:23:20.684Z,12.59
2022-10-06T02:28:41.386Z,12.54
2022-10-06T02:34:05.758Z,12.56
2022-10-06T02:39:26.939Z,12.48
2022-10-06T02:44:47.604Z,12.58
2022-10-06T02:50:08.694Z,12.57
2022-10-06T02:55:31.275Z,12.46
2022-10-06T03:00:53.779Z,12.41
2022-10-06T03:06:23.344Z,12.36
2022-10-06T03:11:58.631Z,12.30
2022-10-06T03:17:34.301Z,12.34
2022-10-06T03:22:55.014Z,12.31
2022-10-06T03:28:17.120Z,12.23
2022-10-06T03:33:38.376Z,12.19
2022-10-06T03:39:00.222Z,12.13
2022-10-06T03:44:22.799Z,12.07
2022-10-06T03:49:44.897Z,12.07
2022-10-06T03:55:07.417Z,12.07
2022-10-06T04:00:28.386Z,12.17
2022-10-06T04:05:54.139Z,12.25
2022-10-06T04:11:29.524Z,12.15
2022-10-06T04:16:51.148Z,12.06
2022-10-06T04:22:19.446Z,12.11
2022-10-06T04:27:40.936Z,12.11
2022-10-06T04:33:07.448Z,11.99
2022-10-06T04:38:30.003Z,11.95
2022-10-06T04:43:51.785Z,11.98
2022-10-06T04:49:19.485Z,11.95
2022-10-06T04:54:42.049Z,11.90
2022-10-06T05:00:22.179Z,11.79
2022-10-06T05:05:43.372Z,11.71
2022-10-06T05:11:07.621Z,11.70
2022-10-06T05:16:30.711Z,11.84
2022-10-06T05:21:52.429Z,11.76
2022-10-06T05:27:17.882Z,11.74
2022-10-06T05:32:38.868Z,11.74
2022-10-06T05:38:00.448Z,11.96
2022-10-06T05:43:21.120Z,12.18
2022-10-06T05:48:52.411Z,12.31
2022-10-06T05:54:15.702Z,12.40
2022-10-06T05:59:36.940Z,12.56
2022-10-06T06:04:59.049Z,12.60
2022-10-06T06:10:20.147Z,12.69
2022-10-06T06:15:59.283Z,12.80
2022-10-06T06:21:21.310Z,12.92
2022-10-06T06:26:42.261Z,13.03
2022-10-06T06:32:02.868Z,13.30
2022-10-06T06:37:23.559Z,13.44
2022-10-06T06:42:44.384Z,13.59
2022-10-06T06:48:28.615Z,13.76
2022-10-06T06:53:53.664Z,13.83
2022-10-06T06:59:14.645Z,13.95
2022-10-06T07:04:38.435Z,14.12
2022-10-06T07:10:02.155Z,14.31
2022-10-06T07:15:44.318Z,14.53
2022-10-06T07:21:29.200Z,14.68
2022-10-06T07:26:50.197Z,14.79
2022-10-06T07:32:10.878Z,14.97
2022-10-06T07:37:31.700Z,15.14
2022-10-06T07:42:53.681Z,15.32
2022-10-06T07:48:38.067Z,15.53
2022-10-06T07:53:58.756Z,15.61
2022-10-06T08:00:02.098Z,15.73
2022-10-06T08:05:32.440Z,15.88
2022-10-06T08:10:55.571Z,15.95
2022-10-06T08:16:19.688Z,16.02
2022-10-06T08:21:40.536Z,16.15
2022-10-06T08:27:01.387Z,16.33
2022-10-06T08:32:23.727Z,16.41
2022-10-06T08:37:45.999Z,16.48
2022-10-06T08:43:15.187Z,16.58
2022-10-06T08:48:38.851Z,16.76
2022-10-06T08:54:11.319Z,16.91
2022-10-06T08:59:36.660Z,16.88
2022-10-06T09:05:01.368Z,16.74
2022-10-06T09:10:41.144Z,16.60
2022-10-06T09:16:07.592Z,16.55
2022-10-06T09:21:37.657Z,16.60
2022-10-06T09:26:59.108Z,16.74
2022-10-06T09:32:23.105Z,16.97
2022-10-06T09:38:08.229Z,17.18
2022-10-06T09:43:31.269Z,17.40
2022-10-06T09:49:21.077Z,17.46
2022-10-06T09:54:43.770Z,17.52
2022-10-06T10:00:30.918Z,17.64
2022-10-06T10:05:57.063Z,17.83
2022-10-06T10:11:41.546Z,17.81
2022-10-06T10:17:14.355Z,17.80
2022-10-06T10:22:40.951Z,17.81
2022-10-06T10:28:11.071Z,17.76
2022-10-06T10:34:12.887Z,17.76
2022-10-06T10:40:01.746Z,17.73
2022-10-06T10:45:34.733Z,17.59
2022-10-06T10:51:03.550Z,17.42
2022-10-06T10:56:27.147Z,17.42
2022-10-06T11:02:03.418Z,17.07
2022-10-06T11:07:37.023Z,16.38
2022-10-06T11:13:10.309Z,15.99
2022-10-06T11:19:10.137Z,15.82
2022-10-06T11:24:37.672Z,15.80
2022-10-06T11:30:19.716Z,15.77
2022-10-06T11:35:44.737Z,15.65
2022-10-06T11:41:33.041Z,15.43
2022-10-06T11:46:58.331Z,15.21
2022-10-06T11:52:19.053Z,15.16
2022-10-06T11:57:58.375Z,15.12
2022-10-06T12:03:28.512Z,15.14
2022-10-06T12:08:49.513Z,15.16
2022-10-06T12:20:39.043Z,15.16
2022-10-06T12:26:20.450Z,15.29
2022-10-06T12:31:46.017Z,15.27
2022-10-06T12:37:40.388Z,15.32
2022-10-06T12:43:19.969Z,15.47
2022-10-06T12:48:54.382Z,15.49
2022-10-06T12:54:20.976Z,15.52
2022-10-06T12:59:41.910Z,15.51
2022-10-06T13:05:11.809Z,15.63
2022-10-06T13:10:33.198Z,15.63
2022-10-06T13:16:00.698Z,15.55
2022-10-06T13:21:22.125Z,15.64
2022-10-06T13:26:42.996Z,15.68
2022-10-06T13:32:07.865Z,15.72
2022-10-06T13:37:28.787Z,15.75
2022-10-06T13:42:49.993Z,15.90
2022-10-06T13:48:18.851Z,16.00
2022-10-06T13:53:40.272Z,16.12
2022-10-06T13:59:29.171Z,16.34
2022-10-06T14:05:20.058Z,16.32
2022-10-06T14:10:41.324Z,16.47
2022-10-06T14:16:06.313Z,16.70
2022-10-06T14:21:31.660Z,16.72
2022-10-06T14:26:56.090Z,16.39
2022-10-06T14:32:18.026Z,16.18
2022-10-06T14:37:38.816Z,16.06
2022-10-06T14:42:59.326Z,16.03
2022-10-06T14:48:20.082Z,15.87
2022-10-06T14:53:40.818Z,15.91
2022-10-06T14:59:05.917Z,15.92
2022-10-06T15:04:28.035Z,15.87
2022-10-06T15:09:49.052Z,15.81
2022-10-06T15:15:10.256Z,15.89
2022-10-06T15:20:30.973Z,15.82
2022-10-06T15:26:11.107Z,15.90
2022-10-06T15:31:34.777Z,15.83
2022-10-06T15:36:57.079Z,15.86
2022-10-06T15:42:21.652Z,15.80
2022-10-06T15:47:42.636Z,15.72
2022-10-06T15:53:03.609Z,15.70
2022-10-06T15:58:24.787Z,15.61
2022-10-06T16:03:45.486Z,15.47
2022-10-06T16:09:11.261Z,15.20
2022-10-06T16:14:32.318Z,15.02
2022-10-06T16:19:53.298Z,15.02
2022-10-06T16:25:14.333Z,14.83
2022-10-06T16:30:35.442Z,14.70
2022-10-06T16:35:57.984Z,14.71
2022-10-06T16:41:19.804Z,14.78
2022-10-06T16:46:40.833Z,14.57
2022-10-06T16:52:01.638Z,14.52
2022-10-06T16:57:22.232Z,14.38
2022-10-06T17:02:43.017Z,14.11
2022-10-06T17:08:03.655Z,13.80
2022-10-06T17:13:24.566Z,13.68
2022-10-06T17:18:53.221Z,13.61
2022-10-06T17:24:14.578Z,13.62
2022-10-06T17:29:35.391Z,13.65
2022-10-06T17:34:56.109Z,13.61
2022-10-06T17:40:19.780Z,13.61
2022-10-06T17:45:40.584Z,13.44
2022-10-06T17:51:01.414Z,13.47
2022-10-06T17:56:24.977Z,13.57
2022-10-06T18:01:46.065Z,13.38
2022-10-06T18:07:10.183Z,13.20
2022-10-06T18:12:36.218Z,13.04
2022-10-06T18:17:57.121Z,12.93
2022-10-06T18:23:17.679Z,12.88
2022-10-06T18:28:39.775Z,12.91
2022-10-06T18:39:41.945Z,13.08
2022-10-06T18:45:22.398Z,13.06
2022-10-06T18:50:43.459Z,12.93
2022-10-06T18:56:07.032Z,12.90
2022-10-06T19:01:29.984Z,12.91
2022-10-06T19:06:53.053Z,12.71
2022-10-06T19:12:14.567Z,12.69
2022-10-06T19:17:35.879Z,12.60
2022-10-06T19:22:57.386Z,12.36
2022-10-06T19:28:18.283Z,12.46
2022-10-06T19:33:39.597Z,12.45
2022-10-06T19:39:07.573Z,12.32
2022-10-06T19:44:29.024Z,12.35
2022-10-06T19:49:49.706Z,12.15
2022-10-06T19:55:10.892Z,12.22
2022-10-06T20:00:32.053Z,12.10
2022-10-06T20:05:53.116Z,12.06
2022-10-06T20:11:18.263Z,12.10
2022-10-06T20:16:41.845Z,11.98
2022-10-06T20:22:02.913Z,11.90
2022-10-06T20:27:23.793Z,11.70
2022-10-06T20:32:44.637Z,11.85
2022-10-06T20:38:08.947Z,11.95
2022-10-06T20:43:30.173Z,11.95
2022-10-06T20:48:52.328Z,11.69
2022-10-06T20:54:14.411Z,11.75
2022-10-06T20:59:35.677Z,11.66
2022-10-06T21:04:57.542Z,11.61
2022-10-06T21:10:18.333Z,11.52
2022-10-06T21:15:45.374Z,11.23
2022-10-06T21:21:07.869Z,11.30
2022-10-06T21:26:28.654Z,11.15
2022-10-06T21:31:49.344Z,11.15
2022-10-06T21:37:10.599Z,11.10
2022-10-06T21:42:31.378Z,10.91
2022-10-06T21:47:52.188Z,10.97
2022-10-06T21:53:12.840Z,10.98
2022-10-06T21:58:33.734Z,10.93
2022-10-06T22:03:55.831Z,11.03
2022-10-06T22:09:20.346Z,10.98
2022-10-06T22:14:41.441Z,11.16
2022-10-06T22:20:02.099Z,11.09
2022-10-06T22:25:22.903Z,10.94
2022-10-06T22:30:43.651Z,10.93
2022-10-06T22:36:05.481Z,11.00
2022-10-06T22:41:26.685Z,11.08
2022-10-06T22:46:47.767Z,11.12
2022-10-06T22:52:08.885Z,11.03
2022-10-06T22:57:29.632Z,10.87
2022-10-06T23:02:50.470Z,10.79
2022-10-06T23:08:11.046Z,10.83
2022-10-06T23:13:31.710Z,10.85
2022-10-06T23:18:52.664Z,10.72
2022-10-06T23:24:13.562Z,10.74
2022-10-06T23:29:34.318Z,10.72
2022-10-06T23:34:55.158Z,10.58
2022-10-06T23:40:15.983Z,10.77
2022-10-06T23:45:36.744Z,10.81
2022-10-06T23:51:06.972Z,10.64
2022-10-06T23:56:27.851Z,10.46
